sensor_id;sensor_type;location;lat;lon;timestamp;P1;durP1;ratioP1;P2;durP2;ratioP2
80536;SDS011;69867;47.074;15.404;2023-07-28T00:00:59;3.47;;;1.40;;
80536;SDS011;69867;47.074;15.404;2023-07-28T00:03:24;4.93;;;2.00;;
80536;SDS011;69867;47.074;15.404;2023-07-28T00:05:49;3.47;;;1.58;;
80536;SDS011;69867;47.074;15.404;2023-07-28T00:08:15;4.20;;;2.00;;
80536;SDS011;69867;47.074;15.404;2023-07-28T00:10:41;4.88;;;1.92;;
80536;SDS011;69867;47.074;15.404;2023-07-28T00:13:07;3.50;;;1.60;;
80536;SDS011;69867;47.074;15.404;2023-07-28T00:15:33;3.53;;;1.60;;
80536;SDS011;69867;47.074;15.404;2023-07-28T00:17:58;4.07;;;1.65;;
80536;SDS011;69867;47.074;15.404;2023-07-28T00:20:23;4.15;;;1.95;;
80536;SDS011;69867;47.074;15.404;2023-07-28T00:22:49;3.17;;;1.40;;
80536;SDS011;69867;47.074;15.404;2023-07-28T00:25:14;5.53;;;1.70;;
80536;SDS011;69867;47.074;15.404;2023-07-28T00:27:39;3.53;;;1.38;;
80536;SDS011;69867;47.074;15.404;2023-07-28T00:30:05;5.30;;;1.80;;
80536;SDS011;69867;47.074;15.404;2023-07-28T00:32:31;4.43;;;1.70;;
80536;SDS011;69867;47.074;15.404;2023-07-28T00:34:56;4.25;;;1.85;;
80536;SDS011;69867;47.074;15.404;2023-07-28T00:37:21;3.63;;;1.85;;
80536;SDS011;69867;47.074;15.404;2023-07-28T00:39:46;5.55;;;1.80;;
80536;SDS011;69867;47.074;15.404;2023-07-28T00:42:12;3.55;;;1.50;;
80536;SDS011;69867;47.074;15.404;2023-07-28T00:44:37;4.35;;;1.92;;
80536;SDS011;69867;47.074;15.404;2023-07-28T00:47:03;3.72;;;1.60;;
80536;SDS011;69867;47.074;15.404;2023-07-28T00:49:28;4.32;;;1.70;;
80536;SDS011;69867;47.074;15.404;2023-07-28T00:51:54;4.78;;;1.75;;
80536;SDS011;69867;47.074;15.404;2023-07-28T00:54:21;3.60;;;1.88;;
80536;SDS011;69867;47.074;15.404;2023-07-28T00:56:46;3.20;;;1.65;;
80536;SDS011;69867;47.074;15.404;2023-07-28T00:59:11;3.75;;;1.63;;
80536;SDS011;69867;47.074;15.404;2023-07-28T01:01:37;3.92;;;1.80;;
80536;SDS011;69867;47.074;15.404;2023-07-28T01:04:03;4.03;;;1.80;;
80536;SDS011;69867;47.074;15.404;2023-07-28T01:06:47;3.75;;;1.60;;
80536;SDS011;69867;47.074;15.404;2023-07-28T01:09:50;4.88;;;1.83;;
80536;SDS011;69867;47.074;15.404;2023-07-28T01:12:21;5.43;;;1.85;;
80536;SDS011;69867;47.074;15.404;2023-07-28T01:14:49;4.43;;;1.63;;
80536;SDS011;69867;47.074;15.404;2023-07-28T01:17:14;3.30;;;1.70;;
80536;SDS011;69867;47.074;15.404;2023-07-28T01:19:40;4.70;;;1.77;;
80536;SDS011;69867;47.074;15.404;2023-07-28T01:25:05;4.50;;;1.73;;
80536;SDS011;69867;47.074;15.404;2023-07-28T01:27:40;2.83;;;1.20;;
80536;SDS011;69867;47.074;15.404;2023-07-28T01:30:06;4.43;;;1.50;;
80536;SDS011;69867;47.074;15.404;2023-07-28T01:32:31;4.82;;;1.80;;
80536;SDS011;69867;47.074;15.404;2023-07-28T01:34:57;5.32;;;1.90;;
80536;SDS011;69867;47.074;15.404;2023-07-28T01:37:22;4.05;;;1.98;;
80536;SDS011;69867;47.074;15.404;2023-07-28T01:39:47;4.65;;;1.88;;
80536;SDS011;69867;47.074;15.404;2023-07-28T01:42:13;4.65;;;1.98;;
80536;SDS011;69867;47.074;15.404;2023-07-28T01:44:38;4.75;;;1.85;;
80536;SDS011;69867;47.074;15.404;2023-07-28T01:47:03;4.28;;;2.00;;
80536;SDS011;69867;47.074;15.404;2023-07-28T01:49:29;5.32;;;2.05;;
80536;SDS011;69867;47.074;15.404;2023-07-28T01:51:54;4.40;;;1.90;;
80536;SDS011;69867;47.074;15.404;2023-07-28T01:54:19;6.47;;;2.20;;
80536;SDS011;69867;47.074;15.404;2023-07-28T01:56:45;4.25;;;2.10;;
80536;SDS011;69867;47.074;15.404;2023-07-28T01:59:10;4.20;;;2.38;;
80536;SDS011;69867;47.074;15.404;2023-07-28T02:01:36;4.63;;;2.03;;
80536;SDS011;69867;47.074;15.404;2023-07-28T02:04:01;4.55;;;2.00;;
80536;SDS011;69867;47.074;15.404;2023-07-28T02:06:26;5.70;;;2.20;;
80536;SDS011;69867;47.074;15.404;2023-07-28T02:08:52;6.22;;;2.13;;
80536;SDS011;69867;47.074;15.404;2023-07-28T02:11:17;4.30;;;1.50;;
80536;SDS011;69867;47.074;15.404;2023-07-28T02:13:42;5.05;;;2.00;;
80536;SDS011;69867;47.074;15.404;2023-07-28T02:16:07;5.15;;;2.17;;
80536;SDS011;69867;47.074;15.404;2023-07-28T02:18:33;4.88;;;2.10;;
80536;SDS011;69867;47.074;15.404;2023-07-28T02:20:58;3.78;;;1.92;;
80536;SDS011;69867;47.074;15.404;2023-07-28T02:23:23;5.07;;;2.10;;
80536;SDS011;69867;47.074;15.404;2023-07-28T02:25:49;4.15;;;1.88;;
80536;SDS011;69867;47.074;15.404;2023-07-28T02:28:14;5.38;;;2.00;;
80536;SDS011;69867;47.074;15.404;2023-07-28T02:30:39;5.43;;;2.15;;
80536;SDS011;69867;47.074;15.404;2023-07-28T02:33:05;4.43;;;1.92;;
80536;SDS011;69867;47.074;15.404;2023-07-28T02:35:30;5.78;;;1.95;;
80536;SDS011;69867;47.074;15.404;2023-07-28T02:37:55;5.38;;;2.10;;
80536;SDS011;69867;47.074;15.404;2023-07-28T02:40:21;4.63;;;2.50;;
80536;SDS011;69867;47.074;15.404;2023-07-28T02:42:46;3.97;;;1.85;;
80536;SDS011;69867;47.074;15.404;2023-07-28T02:45:11;4.90;;;2.13;;
80536;SDS011;69867;47.074;15.404;2023-07-28T02:47:37;4.82;;;2.13;;
80536;SDS011;69867;47.074;15.404;2023-07-28T02:50:02;5.00;;;2.15;;
80536;SDS011;69867;47.074;15.404;2023-07-28T02:52:28;3.83;;;1.80;;
80536;SDS011;69867;47.074;15.404;2023-07-28T02:54:53;4.22;;;1.95;;
80536;SDS011;69867;47.074;15.404;2023-07-28T02:57:19;6.00;;;2.25;;
80536;SDS011;69867;47.074;15.404;2023-07-28T02:59:44;6.38;;;2.20;;
80536;SDS011;69867;47.074;15.404;2023-07-28T03:02:09;3.85;;;2.10;;
80536;SDS011;69867;47.074;15.404;2023-07-28T03:04:35;5.05;;;2.03;;
80536;SDS011;69867;47.074;15.404;2023-07-28T03:07:00;4.97;;;1.70;;
80536;SDS011;69867;47.074;15.404;2023-07-28T03:09:25;4.28;;;1.95;;
80536;SDS011;69867;47.074;15.404;2023-07-28T03:11:51;5.53;;;1.90;;
80536;SDS011;69867;47.074;15.404;2023-07-28T03:14:16;4.13;;;1.73;;
80536;SDS011;69867;47.074;15.404;2023-07-28T03:16:41;3.72;;;1.65;;
80536;SDS011;69867;47.074;15.404;2023-07-28T03:19:07;4.90;;;1.83;;
80536;SDS011;69867;47.074;15.404;2023-07-28T03:21:32;4.95;;;2.10;;
80536;SDS011;69867;47.074;15.404;2023-07-28T03:23:58;6.78;;;2.97;;
80536;SDS011;69867;47.074;15.404;2023-07-28T03:26:23;6.20;;;2.33;;
80536;SDS011;69867;47.074;15.404;2023-07-28T03:28:48;7.13;;;3.22;;
80536;SDS011;69867;47.074;15.404;2023-07-28T03:31:14;6.68;;;2.60;;
80536;SDS011;69867;47.074;15.404;2023-07-28T03:33:39;4.93;;;2.25;;
80536;SDS011;69867;47.074;15.404;2023-07-28T03:36:04;4.22;;;1.90;;
80536;SDS011;69867;47.074;15.404;2023-07-28T03:38:30;5.82;;;2.17;;
80536;SDS011;69867;47.074;15.404;2023-07-28T03:40:55;5.05;;;2.10;;
80536;SDS011;69867;47.074;15.404;2023-07-28T03:43:20;5.25;;;2.08;;
80536;SDS011;69867;47.074;15.404;2023-07-28T03:45:46;4.25;;;1.88;;
80536;SDS011;69867;47.074;15.404;2023-07-28T03:48:11;4.20;;;1.77;;
80536;SDS011;69867;47.074;15.404;2023-07-28T03:50:37;5.47;;;2.08;;
80536;SDS011;69867;47.074;15.404;2023-07-28T03:53:02;4.85;;;2.28;;
80536;SDS011;69867;47.074;15.404;2023-07-28T03:55:27;4.50;;;2.17;;
80536;SDS011;69867;47.074;15.404;2023-07-28T03:57:53;4.18;;;2.40;;
80536;SDS011;69867;47.074;15.404;2023-07-28T04:00:18;4.82;;;1.90;;
80536;SDS011;69867;47.074;15.404;2023-07-28T04:02:43;5.15;;;1.77;;
80536;SDS011;69867;47.074;15.404;2023-07-28T04:05:09;6.50;;;2.15;;
80536;SDS011;69867;47.074;15.404;2023-07-28T04:07:34;4.50;;;1.73;;
80536;SDS011;69867;47.074;15.404;2023-07-28T04:09:59;4.38;;;1.90;;
80536;SDS011;69867;47.074;15.404;2023-07-28T04:12:25;4.63;;;1.85;;
80536;SDS011;69867;47.074;15.404;2023-07-28T04:14:50;3.97;;;2.00;;
80536;SDS011;69867;47.074;15.404;2023-07-28T04:17:15;4.20;;;1.90;;
80536;SDS011;69867;47.074;15.404;2023-07-28T04:19:41;4.75;;;2.00;;
80536;SDS011;69867;47.074;15.404;2023-07-28T04:22:06;5.18;;;2.17;;
80536;SDS011;69867;47.074;15.404;2023-07-28T04:24:32;5.32;;;2.20;;
80536;SDS011;69867;47.074;15.404;2023-07-28T04:26:57;4.90;;;1.80;;
80536;SDS011;69867;47.074;15.404;2023-07-28T04:29:22;4.45;;;2.05;;
80536;SDS011;69867;47.074;15.404;2023-07-28T04:31:48;4.78;;;1.73;;
80536;SDS011;69867;47.074;15.404;2023-07-28T04:34:13;4.85;;;2.25;;
80536;SDS011;69867;47.074;15.404;2023-07-28T04:36:39;4.25;;;1.98;;
80536;SDS011;69867;47.074;15.404;2023-07-28T04:39:04;4.60;;;2.33;;
80536;SDS011;69867;47.074;15.404;2023-07-28T04:41:29;5.72;;;2.22;;
80536;SDS011;69867;47.074;15.404;2023-07-28T04:43:55;4.22;;;1.90;;
80536;SDS011;69867;47.074;15.404;2023-07-28T04:46:21;5.22;;;2.25;;
80536;SDS011;69867;47.074;15.404;2023-07-28T04:48:46;5.72;;;2.45;;
80536;SDS011;69867;47.074;15.404;2023-07-28T04:51:12;5.93;;;1.98;;
80536;SDS011;69867;47.074;15.404;2023-07-28T04:53:37;5.50;;;2.25;;
80536;SDS011;69867;47.074;15.404;2023-07-28T04:56:02;4.22;;;2.20;;
80536;SDS011;69867;47.074;15.404;2023-07-28T04:58:28;6.63;;;2.60;;
80536;SDS011;69867;47.074;15.404;2023-07-28T05:00:54;5.15;;;2.42;;
80536;SDS011;69867;47.074;15.404;2023-07-28T05:03:19;5.72;;;2.13;;
80536;SDS011;69867;47.074;15.404;2023-07-28T05:05:44;4.80;;;2.63;;
80536;SDS011;69867;47.074;15.404;2023-07-28T05:08:10;6.70;;;2.80;;
80536;SDS011;69867;47.074;15.404;2023-07-28T05:10:36;5.93;;;2.30;;
80536;SDS011;69867;47.074;15.404;2023-07-28T05:13:01;4.15;;;1.85;;
80536;SDS011;69867;47.074;15.404;2023-07-28T05:15:27;5.93;;;3.00;;
80536;SDS011;69867;47.074;15.404;2023-07-28T05:17:52;7.63;;;2.80;;
80536;SDS011;69867;47.074;15.404;2023-07-28T05:20:17;4.72;;;2.20;;
80536;SDS011;69867;47.074;15.404;2023-07-28T05:22:43;4.20;;;2.22;;
80536;SDS011;69867;47.074;15.404;2023-07-28T05:25:08;5.85;;;2.80;;
80536;SDS011;69867;47.074;15.404;2023-07-28T05:27:33;5.70;;;2.45;;
80536;SDS011;69867;47.074;15.404;2023-07-28T05:29:59;6.72;;;2.60;;
80536;SDS011;69867;47.074;15.404;2023-07-28T05:32:24;6.95;;;2.35;;
80536;SDS011;69867;47.074;15.404;2023-07-28T05:34:49;5.30;;;2.30;;
80536;SDS011;69867;47.074;15.404;2023-07-28T05:37:15;5.20;;;2.53;;
80536;SDS011;69867;47.074;15.404;2023-07-28T05:39:40;6.25;;;2.47;;
80536;SDS011;69867;47.074;15.404;2023-07-28T05:42:05;6.35;;;2.53;;
80536;SDS011;69867;47.074;15.404;2023-07-28T05:44:31;5.07;;;2.53;;
80536;SDS011;69867;47.074;15.404;2023-07-28T05:46:56;8.05;;;3.53;;
80536;SDS011;69867;47.074;15.404;2023-07-28T05:49:22;6.47;;;2.78;;
80536;SDS011;69867;47.074;15.404;2023-07-28T05:51:47;6.00;;;2.35;;
80536;SDS011;69867;47.074;15.404;2023-07-28T05:54:12;8.77;;;2.80;;
80536;SDS011;69867;47.074;15.404;2023-07-28T05:56:38;5.97;;;2.92;;
80536;SDS011;69867;47.074;15.404;2023-07-28T05:59:03;6.97;;;2.88;;
80536;SDS011;69867;47.074;15.404;2023-07-28T06:01:28;6.05;;;3.30;;
80536;SDS011;69867;47.074;15.404;2023-07-28T06:03:54;6.97;;;2.90;;
80536;SDS011;69867;47.074;15.404;2023-07-28T06:06:19;6.57;;;3.00;;
80536;SDS011;69867;47.074;15.404;2023-07-28T06:08:45;4.60;;;2.58;;
80536;SDS011;69867;47.074;15.404;2023-07-28T06:11:10;7.13;;;3.08;;
80536;SDS011;69867;47.074;15.404;2023-07-28T06:13:35;6.40;;;3.33;;
80536;SDS011;69867;47.074;15.404;2023-07-28T06:16:00;5.45;;;2.97;;
80536;SDS011;69867;47.074;15.404;2023-07-28T06:18:26;5.75;;;3.40;;
80536;SDS011;69867;47.074;15.404;2023-07-28T06:20:51;6.72;;;3.05;;
80536;SDS011;69867;47.074;15.404;2023-07-28T06:23:16;4.43;;;2.97;;
80536;SDS011;69867;47.074;15.404;2023-07-28T06:25:42;5.65;;;2.65;;
80536;SDS011;69867;47.074;15.404;2023-07-28T06:28:07;6.72;;;2.88;;
80536;SDS011;69867;47.074;15.404;2023-07-28T06:30:32;7.95;;;2.85;;
80536;SDS011;69867;47.074;15.404;2023-07-28T06:32:58;4.97;;;2.47;;
80536;SDS011;69867;47.074;15.404;2023-07-28T06:35:23;5.85;;;2.50;;
80536;SDS011;69867;47.074;15.404;2023-07-28T06:37:48;5.07;;;2.40;;
80536;SDS011;69867;47.074;15.404;2023-07-28T06:40:14;5.40;;;3.08;;
80536;SDS011;69867;47.074;15.404;2023-07-28T06:42:39;6.05;;;2.80;;
80536;SDS011;69867;47.074;15.404;2023-07-28T06:45:04;6.72;;;2.30;;
80536;SDS011;69867;47.074;15.404;2023-07-28T06:47:30;5.50;;;2.63;;
80536;SDS011;69867;47.074;15.404;2023-07-28T06:49:56;6.10;;;2.67;;
80536;SDS011;69867;47.074;15.404;2023-07-28T06:52:21;7.47;;;2.47;;
80536;SDS011;69867;47.074;15.404;2023-07-28T06:54:47;5.90;;;2.13;;
80536;SDS011;69867;47.074;15.404;2023-07-28T06:57:12;6.35;;;2.42;;
80536;SDS011;69867;47.074;15.404;2023-07-28T06:59:37;7.00;;;2.70;;
80536;SDS011;69867;47.074;15.404;2023-07-28T07:02:03;5.55;;;2.65;;
80536;SDS011;69867;47.074;15.404;2023-07-28T07:04:28;5.10;;;2.30;;
80536;SDS011;69867;47.074;15.404;2023-07-28T07:06:54;4.55;;;2.40;;
80536;SDS011;69867;47.074;15.404;2023-07-28T07:09:19;5.88;;;2.70;;
80536;SDS011;69867;47.074;15.404;2023-07-28T07:11:44;6.53;;;2.40;;
80536;SDS011;69867;47.074;15.404;2023-07-28T07:14:10;5.10;;;2.25;;
80536;SDS011;69867;47.074;15.404;2023-07-28T07:16:35;7.68;;;2.60;;
80536;SDS011;69867;47.074;15.404;2023-07-28T07:19:01;5.85;;;2.50;;
80536;SDS011;69867;47.074;15.404;2023-07-28T07:21:29;6.35;;;2.13;;
80536;SDS011;69867;47.074;15.404;2023-07-28T07:23:54;5.55;;;2.50;;
80536;SDS011;69867;47.074;15.404;2023-07-28T07:26:20;4.45;;;2.00;;
80536;SDS011;69867;47.074;15.404;2023-07-28T07:28:45;5.18;;;2.30;;
80536;SDS011;69867;47.074;15.404;2023-07-28T07:31:14;5.55;;;2.38;;
80536;SDS011;69867;47.074;15.404;2023-07-28T07:33:40;5.43;;;2.08;;
80536;SDS011;69867;47.074;15.404;2023-07-28T07:36:11;4.13;;;2.28;;
80536;SDS011;69867;47.074;15.404;2023-07-28T07:38:40;5.50;;;2.10;;
80536;SDS011;69867;47.074;15.404;2023-07-28T07:41:06;6.53;;;2.20;;
80536;SDS011;69867;47.074;15.404;2023-07-28T07:43:31;6.50;;;2.03;;
80536;SDS011;69867;47.074;15.404;2023-07-28T07:45:57;4.03;;;1.85;;
80536;SDS011;69867;47.074;15.404;2023-07-28T07:48:22;4.55;;;2.10;;
80536;SDS011;69867;47.074;15.404;2023-07-28T07:50:47;6.22;;;2.10;;
80536;SDS011;69867;47.074;15.404;2023-07-28T07:53:13;4.53;;;1.77;;
80536;SDS011;69867;47.074;15.404;2023-07-28T07:55:38;4.45;;;1.67;;
80536;SDS011;69867;47.074;15.404;2023-07-28T07:58:03;5.63;;;1.77;;
80536;SDS011;69867;47.074;15.404;2023-07-28T08:00:29;4.03;;;1.77;;
80536;SDS011;69867;47.074;15.404;2023-07-28T08:02:54;7.53;;;2.10;;
80536;SDS011;69867;47.074;15.404;2023-07-28T08:05:19;5.20;;;1.95;;
80536;SDS011;69867;47.074;15.404;2023-07-28T08:07:45;4.13;;;1.77;;
80536;SDS011;69867;47.074;15.404;2023-07-28T08:10:10;6.03;;;1.98;;
80536;SDS011;69867;47.074;15.404;2023-07-28T08:12:35;6.93;;;1.90;;
80536;SDS011;69867;47.074;15.404;2023-07-28T08:15:01;4.35;;;2.08;;
80536;SDS011;69867;47.074;15.404;2023-07-28T08:17:26;3.88;;;1.70;;
80536;SDS011;69867;47.074;15.404;2023-07-28T08:19:51;4.97;;;1.80;;
80536;SDS011;69867;47.074;15.404;2023-07-28T08:22:17;3.50;;;1.92;;
80536;SDS011;69867;47.074;15.404;2023-07-28T08:24:42;4.55;;;2.20;;
80536;SDS011;69867;47.074;15.404;2023-07-28T08:27:07;4.72;;;2.58;;
80536;SDS011;69867;47.074;15.404;2023-07-28T08:29:33;4.90;;;2.20;;
80536;SDS011;69867;47.074;15.404;2023-07-28T08:31:58;5.70;;;2.00;;
80536;SDS011;69867;47.074;15.404;2023-07-28T08:34:23;4.22;;;1.80;;
80536;SDS011;69867;47.074;15.404;2023-07-28T08:36:49;4.90;;;1.73;;
80536;SDS011;69867;47.074;15.404;2023-07-28T08:39:14;3.85;;;1.98;;
80536;SDS011;69867;47.074;15.404;2023-07-28T08:41:39;5.75;;;1.73;;
80536;SDS011;69867;47.074;15.404;2023-07-28T08:44:05;5.65;;;2.08;;
80536;SDS011;69867;47.074;15.404;2023-07-28T08:46:31;4.25;;;1.90;;
80536;SDS011;69867;47.074;15.404;2023-07-28T08:48:56;4.05;;;1.73;;
80536;SDS011;69867;47.074;15.404;2023-07-28T08:51:22;4.03;;;1.67;;
80536;SDS011;69867;47.074;15.404;2023-07-28T08:53:48;4.00;;;1.95;;
80536;SDS011;69867;47.074;15.404;2023-07-28T08:56:13;5.88;;;1.80;;
80536;SDS011;69867;47.074;15.404;2023-07-28T08:58:38;4.40;;;2.17;;
80536;SDS011;69867;47.074;15.404;2023-07-28T09:01:04;6.20;;;1.85;;
80536;SDS011;69867;47.074;15.404;2023-07-28T09:03:29;3.38;;;1.33;;
80536;SDS011;69867;47.074;15.404;2023-07-28T09:06:01;4.10;;;1.48;;
80536;SDS011;69867;47.074;15.404;2023-07-28T09:08:27;3.90;;;1.73;;
80536;SDS011;69867;47.074;15.404;2023-07-28T09:10:55;4.43;;;1.70;;
80536;SDS011;69867;47.074;15.404;2023-07-28T09:13:21;4.88;;;1.95;;
80536;SDS011;69867;47.074;15.404;2023-07-28T09:15:46;8.27;;;1.70;;
80536;SDS011;69867;47.074;15.404;2023-07-28T09:18:14;3.30;;;1.40;;
80536;SDS011;69867;47.074;15.404;2023-07-28T09:20:41;3.63;;;1.60;;
80536;SDS011;69867;47.074;15.404;2023-07-28T09:23:07;3.90;;;1.75;;
80536;SDS011;69867;47.074;15.404;2023-07-28T09:25:34;3.63;;;1.80;;
80536;SDS011;69867;47.074;15.404;2023-07-28T09:28:00;3.83;;;1.70;;
80536;SDS011;69867;47.074;15.404;2023-07-28T09:30:26;4.25;;;1.63;;
80536;SDS011;69867;47.074;15.404;2023-07-28T09:32:53;3.42;;;1.30;;
80536;SDS011;69867;47.074;15.404;2023-07-28T09:35:19;4.03;;;1.55;;
80536;SDS011;69867;47.074;15.404;2023-07-28T09:37:46;3.60;;;1.42;;
80536;SDS011;69867;47.074;15.404;2023-07-28T09:40:14;6.22;;;1.92;;
80536;SDS011;69867;47.074;15.404;2023-07-28T09:42:41;4.35;;;1.95;;
80536;SDS011;69867;47.074;15.404;2023-07-28T09:45:08;6.40;;;1.88;;
80536;SDS011;69867;47.074;15.404;2023-07-28T09:47:34;4.68;;;1.90;;
80536;SDS011;69867;47.074;15.404;2023-07-28T09:50:01;2.72;;;1.40;;
80536;SDS011;69867;47.074;15.404;2023-07-28T09:52:28;4.18;;;1.60;;
80536;SDS011;69867;47.074;15.404;2023-07-28T09:54:59;5.03;;;1.38;;
80536;SDS011;69867;47.074;15.404;2023-07-28T09:57:29;4.60;;;1.70;;
80536;SDS011;69867;47.074;15.404;2023-07-28T09:59:57;4.55;;;1.70;;
80536;SDS011;69867;47.074;15.404;2023-07-28T10:02:25;3.50;;;1.70;;
80536;SDS011;69867;47.074;15.404;2023-07-28T10:04:51;5.95;;;1.90;;
80536;SDS011;69867;47.074;15.404;2023-07-28T10:07:17;3.67;;;1.75;;
80536;SDS011;69867;47.074;15.404;2023-07-28T10:09:42;3.65;;;1.70;;
80536;SDS011;69867;47.074;15.404;2023-07-28T10:12:16;4.82;;;2.30;;
80536;SDS011;69867;47.074;15.404;2023-07-28T10:14:43;4.18;;;2.20;;
80536;SDS011;69867;47.074;15.404;2023-07-28T10:17:08;5.45;;;2.45;;
80536;SDS011;69867;47.074;15.404;2023-07-28T10:19:40;8.93;;;2.95;;
80536;SDS011;69867;47.074;15.404;2023-07-28T10:22:09;5.82;;;2.35;;
80536;SDS011;69867;47.074;15.404;2023-07-28T10:27:37;4.10;;;2.00;;
80536;SDS011;69867;47.074;15.404;2023-07-28T10:30:12;5.50;;;2.30;;
80536;SDS011;69867;47.074;15.404;2023-07-28T10:32:41;5.57;;;2.00;;
80536;SDS011;69867;47.074;15.404;2023-07-28T10:37:39;6.10;;;1.83;;
80536;SDS011;69867;47.074;15.404;2023-07-28T10:42:52;6.38;;;1.75;;
80536;SDS011;69867;47.074;15.404;2023-07-28T10:45:18;4.53;;;1.92;;
80536;SDS011;69867;47.074;15.404;2023-07-28T10:47:44;3.35;;;1.63;;
80536;SDS011;69867;47.074;15.404;2023-07-28T10:50:10;3.88;;;1.92;;
80536;SDS011;69867;47.074;15.404;2023-07-28T10:52:42;4.28;;;1.85;;
80536;SDS011;69867;47.074;15.404;2023-07-28T10:55:14;4.70;;;2.53;;
80536;SDS011;69867;47.074;15.404;2023-07-28T10:57:45;3.92;;;1.70;;
80536;SDS011;69867;47.074;15.404;2023-07-28T11:00:11;3.50;;;1.70;;
80536;SDS011;69867;47.074;15.404;2023-07-28T11:02:39;4.22;;;1.88;;
80536;SDS011;69867;47.074;15.404;2023-07-28T11:05:09;3.10;;;1.52;;
80536;SDS011;69867;47.074;15.404;2023-07-28T11:07:35;6.65;;;2.00;;
80536;SDS011;69867;47.074;15.404;2023-07-28T11:10:01;3.63;;;1.70;;
80536;SDS011;69867;47.074;15.404;2023-07-28T11:12:27;4.30;;;1.83;;
80536;SDS011;69867;47.074;15.404;2023-07-28T11:14:52;4.00;;;1.67;;
80536;SDS011;69867;47.074;15.404;2023-07-28T11:17:17;4.47;;;2.00;;
80536;SDS011;69867;47.074;15.404;2023-07-28T11:19:43;4.85;;;2.08;;
80536;SDS011;69867;47.074;15.404;2023-07-28T11:22:08;3.95;;;1.92;;
80536;SDS011;69867;47.074;15.404;2023-07-28T11:24:34;4.55;;;2.10;;
80536;SDS011;69867;47.074;15.404;2023-07-28T11:26:59;3.83;;;2.05;;
80536;SDS011;69867;47.074;15.404;2023-07-28T11:29:26;4.63;;;2.00;;
80536;SDS011;69867;47.074;15.404;2023-07-28T11:31:52;3.83;;;1.73;;
80536;SDS011;69867;47.074;15.404;2023-07-28T11:34:18;2.97;;;1.73;;
80536;SDS011;69867;47.074;15.404;2023-07-28T11:36:44;4.75;;;2.20;;
80536;SDS011;69867;47.074;15.404;2023-07-28T11:39:09;4.45;;;1.95;;
80536;SDS011;69867;47.074;15.404;2023-07-28T11:41:35;4.75;;;1.90;;
80536;SDS011;69867;47.074;15.404;2023-07-28T11:44:01;4.05;;;2.15;;
80536;SDS011;69867;47.074;15.404;2023-07-28T11:46:37;4.00;;;2.10;;
80536;SDS011;69867;47.074;15.404;2023-07-28T11:51:40;4.57;;;2.03;;
80536;SDS011;69867;47.074;15.404;2023-07-28T11:54:06;3.65;;;1.98;;
80536;SDS011;69867;47.074;15.404;2023-07-28T11:56:31;4.22;;;2.33;;
80536;SDS011;69867;47.074;15.404;2023-07-28T11:58:57;4.28;;;2.25;;
80536;SDS011;69867;47.074;15.404;2023-07-28T12:01:23;4.25;;;2.10;;
80536;SDS011;69867;47.074;15.404;2023-07-28T12:03:48;3.88;;;1.70;;
80536;SDS011;69867;47.074;15.404;2023-07-28T12:06:14;4.18;;;2.13;;
80536;SDS011;69867;47.074;15.404;2023-07-28T12:08:39;3.42;;;1.77;;
80536;SDS011;69867;47.074;15.404;2023-07-28T12:11:04;3.83;;;1.98;;
80536;SDS011;69867;47.074;15.404;2023-07-28T12:13:30;4.72;;;2.15;;
80536;SDS011;69867;47.074;15.404;2023-07-28T12:15:56;3.72;;;1.58;;
80536;SDS011;69867;47.074;15.404;2023-07-28T12:18:21;8.00;;;1.75;;
80536;SDS011;69867;47.074;15.404;2023-07-28T12:20:47;3.67;;;1.73;;
80536;SDS011;69867;47.074;15.404;2023-07-28T12:23:14;4.88;;;1.58;;
80536;SDS011;69867;47.074;15.404;2023-07-28T12:25:43;5.35;;;2.00;;
80536;SDS011;69867;47.074;15.404;2023-07-28T12:28:09;7.00;;;2.28;;
80536;SDS011;69867;47.074;15.404;2023-07-28T12:30:35;3.97;;;1.85;;
80536;SDS011;69867;47.074;15.404;2023-07-28T12:33:03;5.45;;;2.97;;
80536;SDS011;69867;47.074;15.404;2023-07-28T12:35:29;4.53;;;1.90;;
80536;SDS011;69867;47.074;15.404;2023-07-28T12:37:57;4.30;;;2.20;;
80536;SDS011;69867;47.074;15.404;2023-07-28T12:40:23;3.35;;;1.75;;
80536;SDS011;69867;47.074;15.404;2023-07-28T12:42:48;3.85;;;1.90;;
80536;SDS011;69867;47.074;15.404;2023-07-28T12:45:14;4.13;;;1.80;;
80536;SDS011;69867;47.074;15.404;2023-07-28T12:47:40;4.00;;;2.08;;
80536;SDS011;69867;47.074;15.404;2023-07-28T12:50:05;4.53;;;2.13;;
80536;SDS011;69867;47.074;15.404;2023-07-28T12:52:31;5.07;;;2.47;;
80536;SDS011;69867;47.074;15.404;2023-07-28T12:54:56;4.15;;;2.08;;
80536;SDS011;69867;47.074;15.404;2023-07-28T12:57:22;3.90;;;2.20;;
80536;SDS011;69867;47.074;15.404;2023-07-28T12:59:47;5.50;;;2.20;;
80536;SDS011;69867;47.074;15.404;2023-07-28T13:02:12;6.18;;;2.10;;
80536;SDS011;69867;47.074;15.404;2023-07-28T13:04:38;4.60;;;2.00;;
80536;SDS011;69867;47.074;15.404;2023-07-28T13:07:03;3.72;;;1.70;;
80536;SDS011;69867;47.074;15.404;2023-07-28T13:09:28;3.88;;;1.75;;
80536;SDS011;69867;47.074;15.404;2023-07-28T13:11:54;5.25;;;2.22;;
80536;SDS011;69867;47.074;15.404;2023-07-28T13:14:19;4.22;;;1.70;;
80536;SDS011;69867;47.074;15.404;2023-07-28T13:16:44;4.32;;;1.52;;
80536;SDS011;69867;47.074;15.404;2023-07-28T13:19:10;3.80;;;2.10;;
80536;SDS011;69867;47.074;15.404;2023-07-28T13:21:35;4.32;;;2.17;;
80536;SDS011;69867;47.074;15.404;2023-07-28T13:24:01;5.07;;;1.70;;
80536;SDS011;69867;47.074;15.404;2023-07-28T13:26:26;4.07;;;1.90;;
80536;SDS011;69867;47.074;15.404;2023-07-28T13:28:51;4.50;;;2.00;;
80536;SDS011;69867;47.074;15.404;2023-07-28T13:31:17;4.45;;;2.10;;
80536;SDS011;69867;47.074;15.404;2023-07-28T13:33:43;3.63;;;2.05;;
80536;SDS011;69867;47.074;15.404;2023-07-28T13:36:10;3.67;;;2.25;;
80536;SDS011;69867;47.074;15.404;2023-07-28T13:38:36;4.18;;;2.00;;
80536;SDS011;69867;47.074;15.404;2023-07-28T13:41:03;4.75;;;1.98;;
80536;SDS011;69867;47.074;15.404;2023-07-28T13:43:30;4.90;;;1.75;;
80536;SDS011;69867;47.074;15.404;2023-07-28T13:45:55;4.35;;;1.83;;
80536;SDS011;69867;47.074;15.404;2023-07-28T13:48:20;4.60;;;2.28;;
80536;SDS011;69867;47.074;15.404;2023-07-28T13:50:46;5.10;;;2.33;;
80536;SDS011;69867;47.074;15.404;2023-07-28T13:53:11;5.70;;;2.25;;
80536;SDS011;69867;47.074;15.404;2023-07-28T13:55:36;4.63;;;2.22;;
80536;SDS011;69867;47.074;15.404;2023-07-28T13:58:01;5.07;;;1.80;;
80536;SDS011;69867;47.074;15.404;2023-07-28T14:00:27;4.07;;;1.83;;
80536;SDS011;69867;47.074;15.404;2023-07-28T14:02:52;3.92;;;1.90;;
80536;SDS011;69867;47.074;15.404;2023-07-28T14:05:17;4.85;;;2.22;;
80536;SDS011;69867;47.074;15.404;2023-07-28T14:07:43;3.95;;;2.25;;
80536;SDS011;69867;47.074;15.404;2023-07-28T14:10:08;4.30;;;2.10;;
80536;SDS011;69867;47.074;15.404;2023-07-28T14:12:34;6.38;;;2.60;;
80536;SDS011;69867;47.074;15.404;2023-07-28T14:14:59;5.38;;;2.40;;
80536;SDS011;69867;47.074;15.404;2023-07-28T14:17:24;6.43;;;2.83;;
80536;SDS011;69867;47.074;15.404;2023-07-28T14:19:50;5.22;;;2.38;;
80536;SDS011;69867;47.074;15.404;2023-07-28T14:22:15;4.97;;;2.30;;
80536;SDS011;69867;47.074;15.404;2023-07-28T14:24:40;4.47;;;2.40;;
80536;SDS011;69867;47.074;15.404;2023-07-28T14:27:06;3.70;;;2.15;;
80536;SDS011;69867;47.074;15.404;2023-07-28T14:29:31;5.03;;;2.53;;
80536;SDS011;69867;47.074;15.404;2023-07-28T14:31:56;5.18;;;2.60;;
80536;SDS011;69867;47.074;15.404;2023-07-28T14:34:22;5.45;;;2.20;;
80536;SDS011;69867;47.074;15.404;2023-07-28T14:36:47;4.38;;;1.92;;
80536;SDS011;69867;47.074;15.404;2023-07-28T14:39:12;7.35;;;2.20;;